Data for 01/25/2009

Time Sea-Level Adjusted Pressure Absolute Pressure Temperature Relative Humidity Dew Point   
(mb) (inHg) (mb) (inHg) (C) (F) (%) (C) (F)
00:05 1017 30.03 846 24.98 -17.3 0.9 73 -21 -5.7
00:10 1017 30.03 846 24.98 -17.3 0.9 73 -21 -5.8
00:15 1017 30.03 846 24.98 -17.3 0.8 74 -21 -5.8
00:20 1017 30.03 846 24.98 -17.3 0.8 75 -20.7 -5.2
00:25 1017 30.03 846 24.98 -17.3 0.8 75 -20.8 -5.4
00:30 1017 30.03 846 24.98 -17.5 0.6 76 -20.8 -5.4
00:35 1017 30.03 846 24.98 -17.5 0.6 76 -20.7 -5.2
00:40 1017 30.03 846 24.98 -17.5 0.6 76 -20.8 -5.4
00:45 1017 30.03 846 24.98 -17.4 0.7 75 -20.8 -5.5
00:50 1017 30.03 846 24.98 -17.4 0.6 74 -21 -5.8
00:55 1017 30.03 846 24.98 -17.5 0.6 73 -21.3 -6.3
01:00 1017 30.03 846 24.98 -17.5 0.6 72 -21.3 -6.4
01:05 1017 30.03 846 24.98 -17.5 0.6 72 -21.3 -6.3
01:10 1017 30.03 846 24.98 -17.5 0.5 73 -21.3 -6.3
01:15 1017 30.03 846 24.98 -17.5 0.4 73 -21.3 -6.4
01:20 1017 30.03 846 24.98 -17.6 0.4 73 -21.3 -6.4
01:25 1017 30.03 846 24.98 -17.6 0.4 73 -21.3 -6.4
01:30 1017 30.03 846 24.98 -17.6 0.3 73 -21.3 -6.4
01:35 1017 30.03 846 24.98 -17.7 0.2 74 -21.2 -6.2
01:40 1017 30.03 846 24.98 -17.7 0.1 74 -21.2 -6.2
01:45 1017 30.03 846 24.98 -17.7 0.1 73 -21.5 -6.6
01:50 1017 30.03 846 24.98 -17.8 -0 73 -21.5 -6.6
01:55 1017 30.03 846 24.98 -17.9 -0.1 73 -21.6 -6.8
02:00 1017 30.03 846 24.98 -17.9 -0.2 73 -21.6 -7
02:05 1017 30.03 846 24.98 -17.9 -0.2 72 -21.7 -7.1
02:10 1017 30.03 846 24.98 -17.9 -0.3 71 -22 -7.6
02:15 1017 30.03 846 24.98 -17.9 -0.2 70 -22.1 -7.8
02:20 1017 30.03 846 24.98 -17.9 -0.3 71 -21.9 -7.5
02:25 1017 30.03 846 24.98 -18 -0.3 72 -21.8 -7.2
02:30 1017 30.03 846 24.98 -18 -0.4 73 -21.8 -7.2
02:35 1017 30.03 846 24.98 -18.1 -0.5 73 -21.8 -7.2
02:40 1017 30.03 846 24.98 -18.1 -0.5 72 -21.9 -7.4
02:45 1017 30.03 846 24.98 -18.1 -0.5 72 -22 -7.6
02:50 1017 30.03 846 24.98 -18.1 -0.6 72 -22.1 -7.7
02:55 1017 30.03 846 24.98 -18.1 -0.6 72 -22.1 -7.8
03:00 1017 30.03 846 24.98 -18.2 -0.8 72 -22 -7.7
03:05 1017 30.03 846 24.98 -18.3 -0.9 73 -22 -7.5
03:10 1017 30.03 846 24.98 -18.3 -0.9 73 -22 -7.6
03:15 1017 30.03 846 24.98 -18.3 -0.9 74 -21.9 -7.5
03:20 1017 30.03 846 24.98 -18.2 -0.8 72 -22.1 -7.8
03:25 1017 30.03 846 24.98 -18.3 -0.9 73 -22.1 -7.7
03:30 1017 30.03 846 24.98 -18.3 -1 74 -21.9 -7.4
03:35 1017 30.03 846 24.98 -18.3 -1 75 -21.8 -7.2
03:40 1017 30.03 846 24.98 -18.4 -1 74 -21.9 -7.4
03:45 1017 30.03 846 24.98 -18.4 -1.2 76 -21.7 -7
03:50 1017 30.03 846 24.98 -18.4 -1.1 75 -21.8 -7.2
03:55 1017 30.03 846 24.98 -18.5 -1.2 75 -21.8 -7.3
04:00 1017 30.03 846 24.98 -18.5 -1.4 74 -22.1 -7.7
04:05 1017 30.03 846 24.98 -18.5 -1.4 74 -22.1 -7.7
04:10 1017 30.03 846 24.98 -18.5 -1.4 73 -22.3 -8.1
04:15 1017 30.03 846 24.98 -18.5 -1.4 72 -22.4 -8.3
04:20 1017 30.03 846 24.98 -18.6 -1.4 72 -22.4 -8.4
04:25 1017 30.03 846 24.98 -18.5 -1.4 73 -22.3 -8.2
04:30 1017 30.03 846 24.98 -18.6 -1.4 72 -22.4 -8.3
04:35 1017 30.03 846 24.98 -18.6 -1.5 73 -22.3 -8.1
04:40 1017 30.03 846 24.98 -18.6 -1.5 74 -22.2 -8
04:45 1017 30.03 846 24.98 -18.7 -1.7 72 -22.6 -8.6
04:50 1017 30.03 846 24.98 -18.8 -1.8 72 -22.6 -8.7
04:55 1017 30.03 846 24.98 -18.7 -1.7 73 -22.5 -8.5
05:00 1017 30.03 846 24.98 -18.7 -1.7 73 -22.5 -8.5
05:05 1017 30.03 846 24.98 -18.7 -1.7 74 -22.3 -8.1
05:10 1017 30.03 846 24.98 -18.7 -1.7 72 -22.5 -8.6
05:15 1017 30.03 846 24.98 -18.7 -1.7 72 -22.6 -8.7
05:20 1017 30.03 846 24.98 -18.8 -1.8 71 -22.9 -9.2
05:25 1017 30.03 846 24.98 -18.8 -1.8 71 -22.9 -9.1
05:30 1017 30.03 846 24.98 -18.7 -1.7 70 -22.9 -9.2
05:35 1017 30.03 846 24.98 -18.8 -1.8 72 -22.7 -8.8
05:40 1017 30.03 846 24.98 -18.8 -1.8 72 -22.6 -8.7
05:45 1017 30.03 846 24.98 -18.9 -1.9 74 -22.4 -8.4
05:50 1017 30.03 846 24.98 -18.9 -2.1 75 -22.2 -8
05:55 1017 30.03 846 24.98 -18.9 -2.1 75 -22.4 -8.3
06:00 1017 30.03 846 24.98 -18.9 -2.1 75 -22.4 -8.3
06:05 1017 30.03 846 24.98 -18.9 -2.1 74 -22.5 -8.5
06:10 1017 30.03 846 24.98 -18.9 -2.1 73 -22.6 -8.6
06:15 1017 30.03 846 24.98 -18.9 -2.1 72 -22.8 -9
06:20 1017 30.03 846 24.98 -19 -2.1 74 -22.5 -8.5
06:25 1017 30.03 846 24.98 -19 -2.2 73 -22.7 -8.8
06:30 1017 30.03 847 25.01 -19 -2.2 73 -22.7 -8.9
06:35 1017 30.03 847 25.01 -19 -2.3 73 -22.7 -8.9
06:40 1017 30.03 847 25.01 -19.1 -2.3 73 -22.7 -8.9
06:45 1017 30.03 847 25.01 -19 -2.2 74 -22.5 -8.5
06:50 1017 30.03 847 25.01 -19 -2.3 75 -22.4 -8.4
06:55 1018 30.06 847 25.01 -19.1 -2.3 75 -22.5 -8.5
07:00 1018 30.06 847 25.01 -19.1 -2.3 75 -22.4 -8.4
07:05 1018 30.06 847 25.01 -19.1 -2.4 74 -22.6 -8.6
07:10 1018 30.06 847 25.01 -19 -2.3 75 -22.4 -8.3
07:15 1018 30.06 847 25.01 -19 -2.2 74 -22.5 -8.5
07:20 1018 30.06 847 25.01 -19 -2.3 74 -22.6 -8.8
07:25 1018 30.06 847 25.01 -19 -2.2 75 -22.5 -8.4
07:30 1018 30.06 847 25.01 -19 -2.2 73 -22.6 -8.7
07:35 1018 30.06 847 25.01 -19 -2.2 73 -22.7 -8.8
07:40 1018 30.06 847 25.01 -19 -2.1 72 -22.8 -9
07:45 1018 30.06 847 25.01 -19 -2.2 73 -22.7 -8.8
07:50 1018 30.06 847 25.01 -19 -2.2 71 -23 -9.3
07:55 1018 30.06 847 25.01 -19 -2.1 71 -23 -9.3
08:00 1018 30.06 847 25.01 -18.9 -2.1 71 -23 -9.4
08:05 1018 30.06 847 25.01 -19 -2.2 69 -23.3 -9.9
08:10 1018 30.06 847 25.01 -19 -2.2 69 -23.4 -10.1
08:15 1018 30.06 847 25.01 -19 -2.2 71 -23 -9.4
08:20 1018 30.06 847 25.01 -19 -2.1 70 -23.1 -9.6
08:25 1018 30.06 847 25.01 -19 -2.1 69 -23.3 -9.9
08:30 1018 30.06 847 25.01 -18.9 -2.1 70 -23.1 -9.6
08:35 1018 30.06 848 25.04 -18.8 -1.9 69 -23.2 -9.7
08:40 1018 30.06 848 25.04 -18.8 -1.9 70 -23 -9.4
08:45 1018 30.06 848 25.04 -18.8 -1.8 71 -22.9 -9.2
08:50 1018 30.06 848 25.04 -18.8 -1.9 72 -22.7 -8.9
08:55 1018 30.06 848 25.04 -18.8 -1.8 74 -22.4 -8.3
09:00 1018 30.06 847 25.01 -18.6 -1.4 73 -22.3 -8.1
09:05 1018 30.06 848 25.04 -18.5 -1.4 72 -22.5 -8.5
09:10 1018 30.06 848 25.04 -18.6 -1.4 72 -22.4 -8.4
09:15 1018 30.06 848 25.04 -18.8 -1.8 72 -22.6 -8.6
09:20 1018 30.06 848 25.04 -18.7 -1.7 73 -22.4 -8.3
09:25 1018 30.06 847 25.01 -18.7 -1.6 73 -22.4 -8.3
09:30 1018 30.06 847 25.01 -18.7 -1.6 74 -22.2 -7.9
09:35 1018 30.06 847 25.01 -18.6 -1.5 74 -22.2 -7.9
09:40 1018 30.06 847 25.01 -18.5 -1.3 74 -22.1 -7.7
09:45 1018 30.06 847 25.01 -18.3 -1 74 -22 -7.6
09:50 1018 30.06 847 25.01 -18.3 -1 74 -21.8 -7.3
09:55 1018 30.06 847 25.01 -18.3 -1 75 -21.7 -7
10:00 1018 30.06 847 25.01 -18.3 -1 75 -21.8 -7.2
10:05 1018 30.06 848 25.04 -18.2 -0.7 77 -21.3 -6.4
10:10 1018 30.06 847 25.01 -18 -0.4 79 -20.8 -5.4
10:15 1018 30.06 847 25.01 -17.8 -0 76 -21.1 -6
10:20 1018 30.06 847 25.01 -17.4 0.6 77 -20.6 -5.1
10:25 1018 30.06 847 25.01 -16.7 2 74 -20.3 -4.6
10:30 1018 30.06 847 25.01 -16.2 2.8 71 -20.3 -4.5
10:35 1018 30.06 847 25.01 -16.5 2.3 72 -20.4 -4.8
10:40 1018 30.06 847 25.01 -16.3 2.7 70 -20.5 -4.9
10:45 1018 30.06 848 25.04 -16 3.2 70 -20.2 -4.4
10:50 1018 30.06 848 25.04 -15.7 3.8 68 -20.3 -4.6
10:55 1018 30.06 848 25.04 -15.5 4.2 67 -20.2 -4.4
11:00 1018 30.06 848 25.04 -15.2 4.7 68 -19.8 -3.6
11:05 1018 30.06 848 25.04 -14.9 5.2 63 -20.5 -4.9
11:10 1018 30.06 848 25.04 -14.8 5.4 67 -19.6 -3.3
11:15 1018 30.06 848 25.04 -14.6 5.7 65 -19.8 -3.7
11:20 1018 30.06 848 25.04 -14.9 5.1 66 -20 -3.9
11:25 1018 30.06 848 25.04 -15.2 4.7 67 -20.1 -4.1
11:30 1018 30.06 848 25.04 -15.6 4 69 -20.1 -4.2
11:35 1018 30.06 848 25.04 -15.7 3.7 66 -20.7 -5.3
11:40 1018 30.06 847 25.01 -15.8 3.5 67 -20.6 -5.1
11:45 1018 30.06 847 25.01 -15.7 3.7 66 -20.7 -5.2
11:50 1018 30.06 847 25.01 -15.7 3.8 66 -20.7 -5.2
11:55 1018 30.06 847 25.01 -15.4 4.3 64 -20.7 -5.3
12:00 1018 30.06 847 25.01 -15 5 64 -20.4 -4.7
12:05 1018 30.06 847 25.01 -14.8 5.3 63 -20.4 -4.7
12:10 1018 30.06 847 25.01 -15.2 4.7 65 -20.4 -4.6
12:15 1018 30.06 847 25.01 -14.6 5.7 63 -20.1 -4.3
12:20 1018 30.06 847 25.01 -14.5 5.9 63 -20.2 -4.3
12:25 1018 30.06 847 25.01 -14.4 6.1 60 -20.5 -4.9
12:30 1018 30.06 847 25.01 -15.1 4.8 65 -20.3 -4.6
12:35 1018 30.06 847 25.01 -15.6 3.9 67 -20.4 -4.8
12:40 1018 30.06 847 25.01 -15.7 3.8 66 -20.6 -5
12:45 1018 30.06 847 25.01 -15.7 3.8 67 -20.5 -4.8
12:50 1018 30.06 847 25.01 -16 3.3 68 -20.5 -5
12:55 1018 30.06 847 25.01 -16.4 2.5 70 -20.7 -5.3
13:00 1018 30.06 847 25.01 -16.2 2.8 68 -20.8 -5.5
13:05 1017 30.03 847 25.01 -16.4 2.6 71 -20.5 -4.8
13:10 1017 30.03 847 25.01 -16 3.2 67 -20.8 -5.4
13:15 1017 30.03 847 25.01 -16.2 2.9 68 -20.8 -5.4
13:20 1017 30.03 846 24.98 -16.3 2.6 69 -20.7 -5.2
13:25 1017 30.03 846 24.98 -15.9 3.4 65 -21 -5.8
13:30 1017 30.03 846 24.98 -16.2 2.9 69 -20.6 -5.1
13:35 1017 30.03 846 24.98 -15.8 3.5 67 -20.6 -5.1
13:40 1017 30.03 846 24.98 -15.7 3.8 65 -20.8 -5.5
13:45 1017 30.03 846 24.98 -15.1 4.7 65 -20.4 -4.7
13:50 1017 30.03 846 24.98 -14.9 5.2 63 -20.5 -4.9
13:55 1017 30.03 846 24.98 -14.5 5.8 60 -20.6 -5.1
14:00 1017 30.03 846 24.98 -14.3 6.3 58 -20.9 -5.6
14:05 1017 30.03 846 24.98 -14.4 6.1 61 -20.4 -4.8
14:10 1017 30.03 846 24.98 -14.7 5.6 60 -20.7 -5.3
14:15 1017 30.03 846 24.98 -14.5 6 60 -20.7 -5.3
14:20 1017 30.03 846 24.98 -14.9 5.3 63 -20.4 -4.6
14:25 1017 30.03 846 24.98 -15.3 4.4 62 -21.1 -5.9
14:30 1017 30.03 846 24.98 -15.4 4.2 64 -20.7 -5.3
14:35 1017 30.03 846 24.98 -15.9 3.5 65 -21 -5.8
14:40 1017 30.03 846 24.98 -16.3 2.7 68 -20.9 -5.6
14:45 1017 30.03 846 24.98 -16.3 2.7 68 -20.9 -5.6
14:50 1017 30.03 846 24.98 -16.3 2.6 68 -21 -5.8
14:55 1017 30.03 846 24.98 -16.1 3 67 -20.9 -5.6
15:00 1017 30.03 846 24.98 -16.4 2.4 68 -21.1 -5.9
15:05 1017 30.03 846 24.98 -16.7 1.9 71 -20.9 -5.5
15:10 1017 30.03 846 24.98 -16.8 1.7 71 -21 -5.7
15:15 1017 30.03 846 24.98 -16.7 2 70 -21 -5.8
15:20 1017 30.03 847 25.01 -16.7 2 66 -21.6 -6.8
15:25 1017 30.03 847 25.01 -16.5 2.3 65 -21.6 -6.9
15:30 1017 30.03 847 25.01 -16.6 2.2 68 -21.3 -6.3
15:35 1017 30.03 847 25.01 -16.5 2.3 65 -21.6 -6.8
15:40 1017 30.03 847 25.01 -16.6 2.1 66 -21.6 -6.8
15:45 1017 30.03 847 25.01 -17 1.4 67 -21.8 -7.3
15:50 1017 30.03 847 25.01 -16.8 1.8 66 -21.7 -7.1
15:55 1017 30.03 847 25.01 -16.7 2 67 -21.5 -6.7
16:00 1018 30.06 847 25.01 -16.7 1.9 66 -21.6 -6.9
16:05 1017 30.03 847 25.01 -17.2 1 68 -21.8 -7.2
16:10 1017 30.03 847 25.01 -17.3 0.9 69 -21.6 -6.9
16:15 1018 30.06 847 25.01 -17 1.5 69 -21.4 -6.6
16:20 1018 30.06 847 25.01 -16.8 1.8 66 -21.8 -7.2
16:25 1018 30.06 847 25.01 -16.9 1.7 67 -21.6 -6.9
16:30 1018 30.06 847 25.01 -16.8 1.8 67 -21.5 -6.7
16:35 1018 30.06 847 25.01 -16.7 1.9 67 -21.5 -6.8
16:40 1018 30.06 847 25.01 -17 1.5 68 -21.5 -6.8
16:45 1018 30.06 847 25.01 -17 1.5 69 -21.4 -6.5
16:50 1018 30.06 847 25.01 -16.9 1.6 68 -21.4 -6.6
16:55 1018 30.06 847 25.01 -17.1 1.3 69 -21.5 -6.7
17:00 1018 30.06 847 25.01 -17.2 1.1 71 -21.3 -6.3
17:05 1018 30.06 847 25.01 -17.2 1 71 -21.3 -6.4
17:10 1018 30.06 847 25.01 -17.3 0.8 71 -21.4 -6.5
17:15 1018 30.06 847 25.01 -17.4 0.7 71 -21.5 -6.7
17:20 1018 30.06 847 25.01 -17.4 0.6 72 -21.3 -6.3
17:25 1018 30.06 847 25.01 -17.3 0.8 72 -21.2 -6.1
17:30 1018 30.06 847 25.01 -17.3 0.9 72 -21.1 -6
17:35 1018 30.06 847 25.01 -17.3 0.8 73 -21.1 -6
17:40 1018 30.06 847 25.01 -17.4 0.6 72 -21.3 -6.3
17:45 1018 30.06 847 25.01 -17.4 0.6 73 -21.1 -6
17:50 1018 30.06 847 25.01 -17.4 0.6 74 -21 -5.8
17:55 1018 30.06 847 25.01 -17.4 0.7 74 -20.9 -5.7
18:00 1018 30.06 847 25.01 -17.3 0.9 74 -20.9 -5.6
18:05 1018 30.06 847 25.01 -17.3 0.9 74 -20.9 -5.5
18:10 1018 30.06 847 25.01 -17.3 0.8 75 -20.8 -5.4
18:15 1018 30.06 847 25.01 -17.3 0.8 75 -20.7 -5.3
18:20 1018 30.06 847 25.01 -17.4 0.7 75 -20.9 -5.6
18:25 1018 30.06 847 25.01 -17.6 0.4 76 -20.9 -5.6
18:30 1018 30.06 847 25.01 -17.6 0.3 76 -20.9 -5.7
18:35 1018 30.06 847 25.01 -17.6 0.2 76 -20.9 -5.6
18:40 1018 30.06 847 25.01 -17.7 0.2 76 -21 -5.7
18:45 1018 30.06 847 25.01 -17.7 0.1 76 -21 -5.9
18:50 1018 30.06 847 25.01 -17.8 0 77 -20.9 -5.6
18:55 1018 30.06 847 25.01 -17.8 0 77 -20.9 -5.5
19:00 1018 30.06 847 25.01 -17.8 -0 77 -20.9 -5.6
19:05 1018 30.06 847 25.01 -17.7 0.1 77 -20.8 -5.4
19:10 1018 30.06 847 25.01 -17.7 0.1 77 -20.8 -5.5
19:15 1018 30.06 847 25.01 -17.8 -0 77 -20.9 -5.7
19:20 1018 30.06 847 25.01 -17.9 -0.2 77 -20.9 -5.7
19:25 1018 30.06 847 25.01 -17.9 -0.3 77 -21 -5.8
19:30 1018 30.06 847 25.01 -18 -0.4 77 -21.1 -5.9
19:35 1018 30.06 847 25.01 -18.1 -0.6 78 -21.1 -6
19:40 1018 30.06 847 25.01 -18.2 -0.7 78 -21.2 -6.1
19:45 1018 30.06 847 25.01 -18.1 -0.7 79 -21 -5.7
19:50 1018 30.06 847 25.01 -18.2 -0.7 79 -21 -5.8
19:55 1018 30.06 847 25.01 -18.3 -0.9 79 -21 -5.8
20:00 1018 30.06 847 25.01 -18.4 -1 79 -21.1 -6
20:05 1018 30.06 847 25.01 -18.4 -1.1 80 -21 -5.8
20:10 1018 30.06 847 25.01 -18.5 -1.3 80 -21.1 -6
20:15 1018 30.06 847 25.01 -18.6 -1.5 81 -21.2 -6.1
20:20 1018 30.06 847 25.01 -18.7 -1.6 82 -21.1 -6
20:25 1018 30.06 847 25.01 -18.7 -1.6 82 -21 -5.9
20:30 1018 30.06 847 25.01 -18.5 -1.2 81 -21 -5.8
20:35 1018 30.06 847 25.01 -18.5 -1.3 81 -21 -5.8
20:40 1018 30.06 848 25.04 -18.7 -1.6 81 -21.1 -6
20:45 1018 30.06 847 25.01 -18.7 -1.7 80 -21.4 -6.5
20:50 1018 30.06 848 25.04 -18.8 -1.9 80 -21.5 -6.7
20:55 1018 30.06 848 25.04 -19 -2.2 80 -21.6 -6.8
21:00 1018 30.06 848 25.04 -18.9 -1.9 80 -21.5 -6.8
21:05 1018 30.06 848 25.04 -18.7 -1.7 80 -21.4 -6.5
21:10 1018 30.06 848 25.04 -18.7 -1.7 81 -21.2 -6.2
21:15 1018 30.06 848 25.04 -18.7 -1.6 80 -21.3 -6.3
21:20 1018 30.06 848 25.04 -18.6 -1.4 80 -21.2 -6.2
21:25 1018 30.06 848 25.04 -18.4 -1.2 80 -21.2 -6.1
21:30 1019 30.09 848 25.04 -18.6 -1.4 80 -21.3 -6.3
21:35 1019 30.09 848 25.04 -18.7 -1.6 80 -21.3 -6.3
21:40 1019 30.09 848 25.04 -18.7 -1.7 80 -21.4 -6.6
21:45 1018 30.06 848 25.04 -18.7 -1.6 79 -21.4 -6.5
21:50 1018 30.06 848 25.04 -18.6 -1.5 80 -21.3 -6.4
21:55 1018 30.06 848 25.04 -18.8 -1.8 81 -21.3 -6.4
22:00 1018 30.06 848 25.04 -18.8 -1.9 82 -21.2 -6.2
22:05 1018 30.06 848 25.04 -18.9 -2 82 -21.2 -6.2
22:10 1018 30.06 848 25.04 -18.9 -2 82 -21.3 -6.3
22:15 1018 30.06 848 25.04 -18.9 -2.1 82 -21.3 -6.4
22:20 1018 30.06 848 25.04 -19 -2.2 82 -21.3 -6.4
22:25 1018 30.06 848 25.04 -19 -2.2 82 -21.4 -6.5
22:30 1018 30.06 848 25.04 -19.3 -2.8 82 -21.7 -7
22:35 1018 30.06 848 25.04 -19.7 -3.4 83 -21.8 -7.3
22:40 1018 30.06 848 25.04 -19.8 -3.6 83 -21.9 -7.5
22:45 1018 30.06 848 25.04 -19.8 -3.6 83 -21.9 -7.5
22:50 1018 30.06 848 25.04 -19.7 -3.5 83 -21.9 -7.4
22:55 1018 30.06 848 25.04 -19.7 -3.5 82 -22 -7.6
23:00 1018 30.06 848 25.04 -19.7 -3.4 82 -22 -7.6
23:05 1018 30.06 848 25.04 -19.8 -3.6 82 -22.1 -7.8
23:10 1018 30.06 848 25.04 -19.9 -3.8 83 -22.1 -7.8
23:15 1018 30.06 848 25.04 -19.8 -3.7 82 -22.2 -8
23:20 1018 30.06 848 25.04 -19.8 -3.7 80 -22.5 -8.5
23:25 1018 30.06 848 25.04 -19.8 -3.6 79 -22.5 -8.5
23:30 1018 30.06 848 25.04 -19.9 -3.9 78 -22.8 -9.1
23:35 1018 30.06 848 25.04 -20.1 -4.2 79 -22.9 -9.1
23:40 1018 30.06 848 25.04 -20.2 -4.3 82 -22.6 -8.6
23:45 1018 30.06 848 25.04 -20.1 -4.1 80 -22.7 -8.9
23:50 1018 30.06 848 25.04 -20.1 -4.2 78 -23 -9.5
23:55 1018 30.06 848 25.04 -20.3 -4.6 78 -23.2 -9.8
24:00 1018 30.06 848 25.04 -20.4 -4.7 79 -23.2 -9.8